Bookmark and Share
Track history (hours):
 

Regal Star

Last reported at 2014-Apr-24 19:04 UTC. Time now 2014-Apr-24 22:26 UTC.
Position N 59°22' E 023°31'.

Length 157 m; draft 6.5 m.

Type: Ship (hazmat cat B). MMSI: 276554000.

NotesDate/timePositionNaut miles runAvg speedWind from/ knotsBaromVisibWave heightAir tempDewpointWater temp
2014-Apr-24 19:04N 59°22' E 023°31'815.7
2014-Apr-24 18:33N 59°22' E 023°47'7 0.5
2014-Apr-24 05:12N 59°21' E 024°01'1015.4
2014-Apr-24 04:33N 59°22' E 023°41'1616.0
2014-Apr-24 03:33N 59°21' E 023°10'4715.7
2014-Apr-24 00:33N 59°28' E 021°38'13 0.5
2014-Apr-23 00:33N 59°37' E 021°20'1716.9
2014-Apr-22 23:33N 59°34' E 021°53'7 0.7
2014-Apr-22 12:08N 59°35' E 022°08'1017.0
2014-Apr-22 11:34N 59°35' E 021°49'1716.9
2014-Apr-22 10:33N 59°37' E 021°16'4 0.4
2014-Apr-22 00:16N 59°38' E 021°08'1216.8
2014-Apr-21 23:34N 59°36' E 021°31'3516.8
2014-Apr-21 21:30N 59°32' E 022°39'23 3.1
2014-Apr-21 14:12N 59°28' E 023°24'4316.2
2014-Apr-21 11:32N 59°35' E 021°59'1616.5
2014-Apr-21 10:33N 59°36' E 021°28'3 0.3
2014-Apr-20 23:33N 59°37' E 021°22'1616.1
2014-Apr-20 22:33N 59°34' E 021°53'3516.0
2014-Apr-20 20:22N 59°29' E 023°02'1415.9
2014-Apr-20 19:28N 59°26' E 023°29'  
2014-Apr-18 06:15N 59°24' E 023°45'1116.1
2014-Apr-18 05:33N 59°28' E 023°24'4714.8
2014-Apr-18 02:23N 59°35' E 021°53'1315.7
2014-Apr-18 01:33N 59°36' E 021°28'8 0.7
2014-Apr-17 13:15N 59°38' E 021°12'1115.5
2014-Apr-17 12:33N 59°36' E 021°33'3115.6
2014-Apr-17 10:33N 59°32' E 022°34'3515.7
2014-Apr-17 08:18N 59°25' E 023°42'62 7.8
2014-Apr-17 00:19N 59°30' E 021°40'1316.9
2014-Apr-16 23:33N 59°33' E 021°15'4 0.2
2014-Apr-15 23:31N 59°37' E 021°16'1515.3
2014-Apr-15 22:34N 59°34' E 021°44'63 3.3
2014-Apr-15 03:30N 59°24' E 023°46'6115.4
2014-Apr-14 23:34N 59°35' E 021°48'1615.5
2014-Apr-14 22:34N 59°36' E 021°18'  

Dump ship's entire track history

sailing weather and tide predictions

Regal Star — ESCM — position and weather